sensor_id;sensor_type;location;lat;lon;timestamp;P1;durP1;ratioP1;P2;durP2;ratioP2
11090;SDS011;5599;52.210;21.046;2024-01-30T00:00:03;29.27;;;20.90;;
11090;SDS011;5599;52.210;21.046;2024-01-30T00:02:33;29.07;;;20.67;;
11090;SDS011;5599;52.210;21.046;2024-01-30T00:05:02;34.20;;;19.93;;
11090;SDS011;5599;52.210;21.046;2024-01-30T00:07:31;31.70;;;21.33;;
11090;SDS011;5599;52.210;21.046;2024-01-30T00:10:00;30.37;;;20.33;;
11090;SDS011;5599;52.210;21.046;2024-01-30T00:12:29;26.50;;;19.87;;
11090;SDS011;5599;52.210;21.046;2024-01-30T00:15:00;31.30;;;20.77;;
11090;SDS011;5599;52.210;21.046;2024-01-30T00:17:31;28.53;;;20.57;;
11090;SDS011;5599;52.210;21.046;2024-01-30T00:20:00;29.40;;;19.73;;
11090;SDS011;5599;52.210;21.046;2024-01-30T00:22:32;28.17;;;19.60;;
11090;SDS011;5599;52.210;21.046;2024-01-30T00:25:01;32.27;;;20.90;;
11090;SDS011;5599;52.210;21.046;2024-01-30T00:27:30;31.67;;;19.77;;
11090;SDS011;5599;52.210;21.046;2024-01-30T00:30:00;30.27;;;19.90;;
11090;SDS011;5599;52.210;21.046;2024-01-30T00:32:29;30.00;;;20.77;;
11090;SDS011;5599;52.210;21.046;2024-01-30T00:34:58;34.63;;;22.30;;
11090;SDS011;5599;52.210;21.046;2024-01-30T00:37:27;31.60;;;20.93;;
11090;SDS011;5599;52.210;21.046;2024-01-30T00:39:56;29.17;;;20.20;;
11090;SDS011;5599;52.210;21.046;2024-01-30T00:42:25;29.43;;;20.43;;
11090;SDS011;5599;52.210;21.046;2024-01-30T00:44:54;30.80;;;21.30;;
11090;SDS011;5599;52.210;21.046;2024-01-30T00:47:24;27.87;;;19.57;;
11090;SDS011;5599;52.210;21.046;2024-01-30T00:49:53;29.53;;;19.90;;
11090;SDS011;5599;52.210;21.046;2024-01-30T00:52:22;31.63;;;20.73;;
11090;SDS011;5599;52.210;21.046;2024-01-30T00:54:51;31.87;;;20.73;;
11090;SDS011;5599;52.210;21.046;2024-01-30T00:57:19;28.47;;;19.73;;
11090;SDS011;5599;52.210;21.046;2024-01-30T00:59:48;29.73;;;21.23;;
11090;SDS011;5599;52.210;21.046;2024-01-30T01:02:17;27.07;;;20.47;;
11090;SDS011;5599;52.210;21.046;2024-01-30T01:04:47;29.50;;;19.80;;
11090;SDS011;5599;52.210;21.046;2024-01-30T01:07:16;32.10;;;20.03;;
11090;SDS011;5599;52.210;21.046;2024-01-30T01:09:45;29.70;;;19.17;;
11090;SDS011;5599;52.210;21.046;2024-01-30T01:12:14;30.93;;;19.60;;
11090;SDS011;5599;52.210;21.046;2024-01-30T01:14:43;30.33;;;20.37;;
11090;SDS011;5599;52.210;21.046;2024-01-30T01:17:12;30.80;;;20.07;;
11090;SDS011;5599;52.210;21.046;2024-01-30T01:19:41;29.20;;;20.23;;
11090;SDS011;5599;52.210;21.046;2024-01-30T01:22:11;32.03;;;20.67;;
11090;SDS011;5599;52.210;21.046;2024-01-30T01:24:40;28.57;;;20.10;;
11090;SDS011;5599;52.210;21.046;2024-01-30T01:27:09;35.23;;;20.23;;
11090;SDS011;5599;52.210;21.046;2024-01-30T01:29:38;30.30;;;19.13;;
11090;SDS011;5599;52.210;21.046;2024-01-30T01:32:07;29.23;;;19.57;;
11090;SDS011;5599;52.210;21.046;2024-01-30T01:34:35;32.70;;;19.97;;
11090;SDS011;5599;52.210;21.046;2024-01-30T01:37:04;27.47;;;19.67;;
11090;SDS011;5599;52.210;21.046;2024-01-30T01:39:35;29.47;;;19.43;;
11090;SDS011;5599;52.210;21.046;2024-01-30T01:42:04;31.23;;;20.30;;
11090;SDS011;5599;52.210;21.046;2024-01-30T01:44:33;31.00;;;19.53;;
11090;SDS011;5599;52.210;21.046;2024-01-30T01:47:02;28.53;;;19.10;;
11090;SDS011;5599;52.210;21.046;2024-01-30T01:49:31;28.87;;;20.07;;
11090;SDS011;5599;52.210;21.046;2024-01-30T01:52:00;29.30;;;19.43;;
11090;SDS011;5599;52.210;21.046;2024-01-30T01:54:30;27.60;;;18.63;;
11090;SDS011;5599;52.210;21.046;2024-01-30T01:57:00;27.17;;;19.17;;
11090;SDS011;5599;52.210;21.046;2024-01-30T01:59:29;27.43;;;19.70;;
11090;SDS011;5599;52.210;21.046;2024-01-30T02:01:58;27.70;;;19.60;;
11090;SDS011;5599;52.210;21.046;2024-01-30T02:04:30;28.63;;;19.47;;
11090;SDS011;5599;52.210;21.046;2024-01-30T02:06:59;26.37;;;18.77;;
11090;SDS011;5599;52.210;21.046;2024-01-30T02:09:28;28.60;;;19.63;;
11090;SDS011;5599;52.210;21.046;2024-01-30T02:11:56;27.07;;;19.53;;
11090;SDS011;5599;52.210;21.046;2024-01-30T02:14:27;26.73;;;19.63;;
11090;SDS011;5599;52.210;21.046;2024-01-30T02:16:57;30.70;;;19.63;;
11090;SDS011;5599;52.210;21.046;2024-01-30T02:19:26;29.83;;;19.73;;
11090;SDS011;5599;52.210;21.046;2024-01-30T02:21:56;28.50;;;18.50;;
11090;SDS011;5599;52.210;21.046;2024-01-30T02:24:25;30.83;;;19.30;;
11090;SDS011;5599;52.210;21.046;2024-01-30T02:26:54;28.33;;;19.23;;
11090;SDS011;5599;52.210;21.046;2024-01-30T02:29:23;26.77;;;19.00;;
11090;SDS011;5599;52.210;21.046;2024-01-30T02:31:51;29.43;;;18.70;;
11090;SDS011;5599;52.210;21.046;2024-01-30T02:34:20;27.80;;;18.47;;
11090;SDS011;5599;52.210;21.046;2024-01-30T02:36:49;27.97;;;19.57;;
11090;SDS011;5599;52.210;21.046;2024-01-30T02:39:19;26.37;;;17.77;;
11090;SDS011;5599;52.210;21.046;2024-01-30T02:41:48;25.67;;;18.03;;
11090;SDS011;5599;52.210;21.046;2024-01-30T02:44:17;30.13;;;19.00;;
11090;SDS011;5599;52.210;21.046;2024-01-30T02:46:46;24.60;;;17.43;;
11090;SDS011;5599;52.210;21.046;2024-01-30T02:49:15;27.83;;;19.13;;
11090;SDS011;5599;52.210;21.046;2024-01-30T02:51:44;26.80;;;17.10;;
11090;SDS011;5599;52.210;21.046;2024-01-30T02:54:13;26.93;;;17.97;;
11090;SDS011;5599;52.210;21.046;2024-01-30T02:56:43;26.43;;;18.00;;
11090;SDS011;5599;52.210;21.046;2024-01-30T02:59:12;29.20;;;19.40;;
11090;SDS011;5599;52.210;21.046;2024-01-30T03:01:44;28.00;;;18.37;;
11090;SDS011;5599;52.210;21.046;2024-01-30T03:04:13;28.83;;;18.80;;
11090;SDS011;5599;52.210;21.046;2024-01-30T03:06:44;28.30;;;19.07;;
11090;SDS011;5599;52.210;21.046;2024-01-30T03:09:16;26.03;;;18.87;;
11090;SDS011;5599;52.210;21.046;2024-01-30T03:11:46;27.00;;;17.83;;
11090;SDS011;5599;52.210;21.046;2024-01-30T03:14:15;28.53;;;18.27;;
11090;SDS011;5599;52.210;21.046;2024-01-30T03:16:44;24.33;;;18.23;;
11090;SDS011;5599;52.210;21.046;2024-01-30T03:19:13;23.27;;;17.23;;
11090;SDS011;5599;52.210;21.046;2024-01-30T03:21:42;27.50;;;18.80;;
11090;SDS011;5599;52.210;21.046;2024-01-30T03:24:11;29.37;;;18.73;;
11090;SDS011;5599;52.210;21.046;2024-01-30T03:26:39;25.97;;;18.33;;
11090;SDS011;5599;52.210;21.046;2024-01-30T03:29:10;28.30;;;18.77;;
11090;SDS011;5599;52.210;21.046;2024-01-30T03:31:39;27.20;;;18.13;;
11090;SDS011;5599;52.210;21.046;2024-01-30T03:34:07;28.63;;;19.67;;
11090;SDS011;5599;52.210;21.046;2024-01-30T03:36:36;28.50;;;18.93;;
11090;SDS011;5599;52.210;21.046;2024-01-30T03:39:05;29.60;;;18.43;;
11090;SDS011;5599;52.210;21.046;2024-01-30T03:41:34;28.33;;;18.37;;
11090;SDS011;5599;52.210;21.046;2024-01-30T03:44:03;24.57;;;16.97;;
11090;SDS011;5599;52.210;21.046;2024-01-30T03:46:33;25.73;;;17.77;;
11090;SDS011;5599;52.210;21.046;2024-01-30T03:49:02;25.93;;;17.90;;
11090;SDS011;5599;52.210;21.046;2024-01-30T03:51:31;27.00;;;18.77;;
11090;SDS011;5599;52.210;21.046;2024-01-30T03:54:00;27.87;;;18.93;;
11090;SDS011;5599;52.210;21.046;2024-01-30T03:56:29;25.30;;;18.13;;
11090;SDS011;5599;52.210;21.046;2024-01-30T03:58:58;26.83;;;18.73;;
11090;SDS011;5599;52.210;21.046;2024-01-30T04:01:27;28.33;;;19.03;;
11090;SDS011;5599;52.210;21.046;2024-01-30T04:03:58;25.87;;;17.87;;
11090;SDS011;5599;52.210;21.046;2024-01-30T04:06:27;26.20;;;18.17;;
11090;SDS011;5599;52.210;21.046;2024-01-30T04:08:55;27.03;;;19.17;;
11090;SDS011;5599;52.210;21.046;2024-01-30T04:11:24;28.87;;;19.00;;
11090;SDS011;5599;52.210;21.046;2024-01-30T04:13:53;28.23;;;18.43;;
11090;SDS011;5599;52.210;21.046;2024-01-30T04:16:22;24.97;;;18.23;;
11090;SDS011;5599;52.210;21.046;2024-01-30T04:18:51;28.23;;;20.00;;
11090;SDS011;5599;52.210;21.046;2024-01-30T04:21:22;30.23;;;18.00;;
11090;SDS011;5599;52.210;21.046;2024-01-30T04:23:51;27.83;;;19.57;;
11090;SDS011;5599;52.210;21.046;2024-01-30T04:26:21;26.93;;;19.60;;
11090;SDS011;5599;52.210;21.046;2024-01-30T04:28:50;27.47;;;19.53;;
11090;SDS011;5599;52.210;21.046;2024-01-30T04:31:19;29.23;;;19.50;;
11090;SDS011;5599;52.210;21.046;2024-01-30T04:33:48;29.33;;;18.97;;
11090;SDS011;5599;52.210;21.046;2024-01-30T04:36:17;27.27;;;18.77;;
11090;SDS011;5599;52.210;21.046;2024-01-30T04:38:47;27.47;;;18.97;;
11090;SDS011;5599;52.210;21.046;2024-01-30T04:41:16;26.07;;;18.20;;
11090;SDS011;5599;52.210;21.046;2024-01-30T04:43:45;27.70;;;19.13;;
11090;SDS011;5599;52.210;21.046;2024-01-30T04:46:13;27.07;;;18.57;;
11090;SDS011;5599;52.210;21.046;2024-01-30T04:48:42;28.80;;;18.70;;
11090;SDS011;5599;52.210;21.046;2024-01-30T04:51:12;26.03;;;18.70;;
11090;SDS011;5599;52.210;21.046;2024-01-30T04:53:40;26.80;;;18.77;;
11090;SDS011;5599;52.210;21.046;2024-01-30T04:56:11;28.80;;;18.80;;
11090;SDS011;5599;52.210;21.046;2024-01-30T04:58:40;26.93;;;18.13;;
11090;SDS011;5599;52.210;21.046;2024-01-30T05:01:08;25.90;;;17.87;;
11090;SDS011;5599;52.210;21.046;2024-01-30T05:03:37;24.40;;;17.77;;
11090;SDS011;5599;52.210;21.046;2024-01-30T05:06:06;28.60;;;18.13;;
11090;SDS011;5599;52.210;21.046;2024-01-30T05:08:35;26.57;;;17.73;;
11090;SDS011;5599;52.210;21.046;2024-01-30T05:11:04;26.33;;;17.80;;
11090;SDS011;5599;52.210;21.046;2024-01-30T05:13:35;27.40;;;17.87;;
11090;SDS011;5599;52.210;21.046;2024-01-30T05:16:04;27.37;;;18.03;;
11090;SDS011;5599;52.210;21.046;2024-01-30T05:18:33;27.70;;;17.87;;
11090;SDS011;5599;52.210;21.046;2024-01-30T05:21:02;27.83;;;19.53;;
11090;SDS011;5599;52.210;21.046;2024-01-30T05:23:31;27.83;;;18.33;;
11090;SDS011;5599;52.210;21.046;2024-01-30T05:26:00;27.37;;;19.03;;
11090;SDS011;5599;52.210;21.046;2024-01-30T05:28:29;27.73;;;17.53;;
11090;SDS011;5599;52.210;21.046;2024-01-30T05:30:59;28.67;;;18.53;;
11090;SDS011;5599;52.210;21.046;2024-01-30T05:33:28;24.43;;;17.50;;
11090;SDS011;5599;52.210;21.046;2024-01-30T05:35:57;26.57;;;18.77;;
11090;SDS011;5599;52.210;21.046;2024-01-30T05:38:26;27.77;;;17.80;;
11090;SDS011;5599;52.210;21.046;2024-01-30T05:40:55;24.23;;;18.00;;
11090;SDS011;5599;52.210;21.046;2024-01-30T05:43:25;28.00;;;18.63;;
11090;SDS011;5599;52.210;21.046;2024-01-30T05:45:53;27.50;;;19.03;;
11090;SDS011;5599;52.210;21.046;2024-01-30T05:48:24;29.30;;;19.03;;
11090;SDS011;5599;52.210;21.046;2024-01-30T05:50:53;28.67;;;19.10;;
11090;SDS011;5599;52.210;21.046;2024-01-30T05:53:22;31.07;;;20.40;;
11090;SDS011;5599;52.210;21.046;2024-01-30T05:55:50;28.07;;;18.33;;
11090;SDS011;5599;52.210;21.046;2024-01-30T05:58:19;27.60;;;19.10;;
11090;SDS011;5599;52.210;21.046;2024-01-30T06:00:48;28.53;;;18.37;;
11090;SDS011;5599;52.210;21.046;2024-01-30T06:03:17;29.13;;;19.30;;
11090;SDS011;5599;52.210;21.046;2024-01-30T06:05:47;30.10;;;19.67;;
11090;SDS011;5599;52.210;21.046;2024-01-30T06:08:17;32.20;;;19.27;;
11090;SDS011;5599;52.210;21.046;2024-01-30T06:10:46;29.87;;;19.63;;
11090;SDS011;5599;52.210;21.046;2024-01-30T06:13:14;25.30;;;17.83;;
11090;SDS011;5599;52.210;21.046;2024-01-30T06:15:43;25.13;;;18.37;;
11090;SDS011;5599;52.210;21.046;2024-01-30T06:18:12;27.27;;;18.90;;
11090;SDS011;5599;52.210;21.046;2024-01-30T06:20:41;28.03;;;19.37;;
11090;SDS011;5599;52.210;21.046;2024-01-30T06:23:11;29.57;;;19.17;;
11090;SDS011;5599;52.210;21.046;2024-01-30T06:25:41;31.10;;;19.67;;
11090;SDS011;5599;52.210;21.046;2024-01-30T06:28:10;27.43;;;19.13;;
11090;SDS011;5599;52.210;21.046;2024-01-30T06:30:39;29.00;;;18.33;;
11090;SDS011;5599;52.210;21.046;2024-01-30T06:33:07;31.80;;;19.33;;
11090;SDS011;5599;52.210;21.046;2024-01-30T06:35:36;27.00;;;19.37;;
11090;SDS011;5599;52.210;21.046;2024-01-30T06:38:12;30.63;;;19.53;;
11090;SDS011;5599;52.210;21.046;2024-01-30T06:40:42;30.77;;;19.00;;
11090;SDS011;5599;52.210;21.046;2024-01-30T06:43:11;27.20;;;20.17;;
11090;SDS011;5599;52.210;21.046;2024-01-30T06:45:40;27.87;;;18.40;;
11090;SDS011;5599;52.210;21.046;2024-01-30T06:48:09;31.07;;;18.87;;
11090;SDS011;5599;52.210;21.046;2024-01-30T06:50:39;27.07;;;18.23;;
11090;SDS011;5599;52.210;21.046;2024-01-30T06:53:08;25.53;;;18.10;;
11090;SDS011;5599;52.210;21.046;2024-01-30T06:55:38;29.63;;;19.43;;
11090;SDS011;5599;52.210;21.046;2024-01-30T06:58:07;29.20;;;18.77;;
11090;SDS011;5599;52.210;21.046;2024-01-30T07:00:36;31.83;;;19.67;;
11090;SDS011;5599;52.210;21.046;2024-01-30T07:03:04;25.50;;;18.83;;
11090;SDS011;5599;52.210;21.046;2024-01-30T07:05:33;29.33;;;19.67;;
11090;SDS011;5599;52.210;21.046;2024-01-30T07:08:02;28.97;;;19.63;;
11090;SDS011;5599;52.210;21.046;2024-01-30T07:10:32;29.87;;;19.37;;
11090;SDS011;5599;52.210;21.046;2024-01-30T07:13:02;25.97;;;18.73;;
11090;SDS011;5599;52.210;21.046;2024-01-30T07:15:32;29.93;;;19.70;;
11090;SDS011;5599;52.210;21.046;2024-01-30T07:18:01;26.07;;;18.73;;
11090;SDS011;5599;52.210;21.046;2024-01-30T07:20:31;26.87;;;18.43;;
11090;SDS011;5599;52.210;21.046;2024-01-30T07:23:00;25.77;;;18.30;;
11090;SDS011;5599;52.210;21.046;2024-01-30T07:25:30;28.60;;;18.13;;
11090;SDS011;5599;52.210;21.046;2024-01-30T07:27:59;28.10;;;18.00;;
11090;SDS011;5599;52.210;21.046;2024-01-30T07:30:29;27.40;;;17.83;;
11090;SDS011;5599;52.210;21.046;2024-01-30T07:32:58;27.20;;;18.87;;
11090;SDS011;5599;52.210;21.046;2024-01-30T07:35:27;27.60;;;19.20;;
11090;SDS011;5599;52.210;21.046;2024-01-30T07:37:56;26.60;;;18.27;;
11090;SDS011;5599;52.210;21.046;2024-01-30T07:40:25;26.90;;;17.97;;
11090;SDS011;5599;52.210;21.046;2024-01-30T07:42:54;22.50;;;16.97;;
11090;SDS011;5599;52.210;21.046;2024-01-30T07:45:23;26.23;;;16.90;;
11090;SDS011;5599;52.210;21.046;2024-01-30T07:47:55;35.20;;;17.93;;
11090;SDS011;5599;52.210;21.046;2024-01-30T07:50:25;25.17;;;17.57;;
11090;SDS011;5599;52.210;21.046;2024-01-30T07:52:55;20.97;;;16.63;;
11090;SDS011;5599;52.210;21.046;2024-01-30T07:55:24;24.10;;;16.13;;
11090;SDS011;5599;52.210;21.046;2024-01-30T07:57:55;23.43;;;16.67;;
11090;SDS011;5599;52.210;21.046;2024-01-30T08:00:24;25.23;;;17.87;;
11090;SDS011;5599;52.210;21.046;2024-01-30T08:02:53;24.67;;;17.63;;
11090;SDS011;5599;52.210;21.046;2024-01-30T08:05:23;22.13;;;16.40;;
11090;SDS011;5599;52.210;21.046;2024-01-30T08:07:52;24.17;;;16.63;;
11090;SDS011;5599;52.210;21.046;2024-01-30T08:10:21;22.03;;;17.50;;
11090;SDS011;5599;52.210;21.046;2024-01-30T08:12:50;22.07;;;17.00;;
11090;SDS011;5599;52.210;21.046;2024-01-30T08:15:20;20.33;;;16.90;;
11090;SDS011;5599;52.210;21.046;2024-01-30T08:17:49;21.70;;;16.93;;
11090;SDS011;5599;52.210;21.046;2024-01-30T08:20:24;21.90;;;16.67;;
11090;SDS011;5599;52.210;21.046;2024-01-30T08:22:53;23.57;;;17.37;;
11090;SDS011;5599;52.210;21.046;2024-01-30T08:25:22;23.77;;;17.87;;
11090;SDS011;5599;52.210;21.046;2024-01-30T08:27:51;22.57;;;16.97;;
11090;SDS011;5599;52.210;21.046;2024-01-30T08:30:20;23.00;;;17.23;;
11090;SDS011;5599;52.210;21.046;2024-01-30T08:32:49;20.37;;;16.03;;
11090;SDS011;5599;52.210;21.046;2024-01-30T08:35:19;22.50;;;17.37;;
11090;SDS011;5599;52.210;21.046;2024-01-30T08:37:49;20.13;;;16.27;;
11090;SDS011;5599;52.210;21.046;2024-01-30T08:40:18;23.10;;;17.27;;
11090;SDS011;5599;52.210;21.046;2024-01-30T08:42:47;20.33;;;15.30;;
11090;SDS011;5599;52.210;21.046;2024-01-30T08:45:16;21.87;;;17.87;;
11090;SDS011;5599;52.210;21.046;2024-01-30T08:47:46;23.33;;;16.13;;
11090;SDS011;5599;52.210;21.046;2024-01-30T08:50:15;22.17;;;16.93;;
11090;SDS011;5599;52.210;21.046;2024-01-30T08:52:50;21.87;;;16.87;;
11090;SDS011;5599;52.210;21.046;2024-01-30T08:55:19;21.53;;;17.43;;
11090;SDS011;5599;52.210;21.046;2024-01-30T08:57:48;20.87;;;15.90;;
11090;SDS011;5599;52.210;21.046;2024-01-30T09:00:19;22.53;;;16.67;;
11090;SDS011;5599;52.210;21.046;2024-01-30T09:02:48;22.43;;;16.97;;
11090;SDS011;5599;52.210;21.046;2024-01-30T09:05:17;19.07;;;16.23;;
11090;SDS011;5599;52.210;21.046;2024-01-30T09:07:46;21.80;;;16.20;;
11090;SDS011;5599;52.210;21.046;2024-01-30T09:10:16;20.10;;;16.03;;
11090;SDS011;5599;52.210;21.046;2024-01-30T09:12:47;21.80;;;16.20;;
11090;SDS011;5599;52.210;21.046;2024-01-30T09:15:17;22.50;;;15.60;;
11090;SDS011;5599;52.210;21.046;2024-01-30T09:17:50;20.40;;;16.00;;
11090;SDS011;5599;52.210;21.046;2024-01-30T09:20:19;22.33;;;15.57;;
11090;SDS011;5599;52.210;21.046;2024-01-30T09:22:49;22.20;;;14.70;;
11090;SDS011;5599;52.210;21.046;2024-01-30T09:25:19;21.00;;;15.47;;
11090;SDS011;5599;52.210;21.046;2024-01-30T09:27:48;20.57;;;14.33;;
11090;SDS011;5599;52.210;21.046;2024-01-30T09:30:17;20.53;;;15.53;;
11090;SDS011;5599;52.210;21.046;2024-01-30T09:32:46;19.17;;;14.43;;
11090;SDS011;5599;52.210;21.046;2024-01-30T09:35:15;20.73;;;16.33;;
11090;SDS011;5599;52.210;21.046;2024-01-30T09:37:45;21.27;;;15.73;;
11090;SDS011;5599;52.210;21.046;2024-01-30T09:40:14;21.17;;;15.30;;
11090;SDS011;5599;52.210;21.046;2024-01-30T09:42:47;17.63;;;14.30;;
11090;SDS011;5599;52.210;21.046;2024-01-30T09:45:19;17.97;;;14.47;;
11090;SDS011;5599;52.210;21.046;2024-01-30T09:47:51;18.63;;;15.53;;
11090;SDS011;5599;52.210;21.046;2024-01-30T09:50:21;18.63;;;13.67;;
11090;SDS011;5599;52.210;21.046;2024-01-30T09:52:50;22.17;;;14.13;;
11090;SDS011;5599;52.210;21.046;2024-01-30T09:55:21;19.53;;;13.27;;
11090;SDS011;5599;52.210;21.046;2024-01-30T09:57:52;18.83;;;13.47;;
11090;SDS011;5599;52.210;21.046;2024-01-30T10:00:21;18.77;;;13.77;;
11090;SDS011;5599;52.210;21.046;2024-01-30T10:02:54;16.70;;;13.00;;
11090;SDS011;5599;52.210;21.046;2024-01-30T10:05:23;18.47;;;13.70;;
11090;SDS011;5599;52.210;21.046;2024-01-30T10:07:56;20.40;;;13.57;;
11090;SDS011;5599;52.210;21.046;2024-01-30T10:10:26;18.17;;;13.67;;
11090;SDS011;5599;52.210;21.046;2024-01-30T10:12:56;18.20;;;12.97;;
11090;SDS011;5599;52.210;21.046;2024-01-30T10:15:28;18.53;;;12.90;;
11090;SDS011;5599;52.210;21.046;2024-01-30T10:17:57;23.30;;;18.17;;
11090;SDS011;5599;52.210;21.046;2024-01-30T10:20:26;16.90;;;12.77;;
11090;SDS011;5599;52.210;21.046;2024-01-30T10:22:56;18.00;;;12.60;;
11090;SDS011;5599;52.210;21.046;2024-01-30T10:25:25;18.47;;;12.60;;
11090;SDS011;5599;52.210;21.046;2024-01-30T10:27:54;19.13;;;13.10;;
11090;SDS011;5599;52.210;21.046;2024-01-30T10:30:25;17.23;;;13.33;;
11090;SDS011;5599;52.210;21.046;2024-01-30T10:32:55;18.57;;;12.80;;
11090;SDS011;5599;52.210;21.046;2024-01-30T10:35:24;18.23;;;12.73;;
11090;SDS011;5599;52.210;21.046;2024-01-30T10:37:53;17.83;;;13.70;;
11090;SDS011;5599;52.210;21.046;2024-01-30T10:40:26;21.30;;;13.07;;
11090;SDS011;5599;52.210;21.046;2024-01-30T10:42:58;16.50;;;12.10;;
11090;SDS011;5599;52.210;21.046;2024-01-30T10:45:31;16.07;;;11.97;;
11090;SDS011;5599;52.210;21.046;2024-01-30T10:48:01;17.50;;;12.47;;
11090;SDS011;5599;52.210;21.046;2024-01-30T10:50:33;19.53;;;13.43;;
11090;SDS011;5599;52.210;21.046;2024-01-30T10:53:16;20.27;;;12.93;;
11090;SDS011;5599;52.210;21.046;2024-01-30T10:55:47;20.37;;;13.47;;
11090;SDS011;5599;52.210;21.046;2024-01-30T10:58:19;19.77;;;13.50;;
11090;SDS011;5599;52.210;21.046;2024-01-30T11:00:49;16.63;;;12.87;;
11090;SDS011;5599;52.210;21.046;2024-01-30T11:03:19;20.03;;;13.20;;
11090;SDS011;5599;52.210;21.046;2024-01-30T11:05:49;17.47;;;12.83;;
11090;SDS011;5599;52.210;21.046;2024-01-30T11:08:25;21.23;;;14.30;;
11090;SDS011;5599;52.210;21.046;2024-01-30T11:10:55;23.63;;;14.47;;
11090;SDS011;5599;52.210;21.046;2024-01-30T11:13:30;20.47;;;14.07;;
11090;SDS011;5599;52.210;21.046;2024-01-30T11:16:00;17.20;;;13.43;;
11090;SDS011;5599;52.210;21.046;2024-01-30T11:18:30;20.27;;;14.30;;
11090;SDS011;5599;52.210;21.046;2024-01-30T11:21:00;21.07;;;13.80;;
11090;SDS011;5599;52.210;21.046;2024-01-30T11:23:30;20.47;;;13.83;;
11090;SDS011;5599;52.210;21.046;2024-01-30T11:26:01;19.93;;;13.43;;
11090;SDS011;5599;52.210;21.046;2024-01-30T11:28:33;16.53;;;13.37;;
11090;SDS011;5599;52.210;21.046;2024-01-30T11:31:03;17.40;;;13.37;;
11090;SDS011;5599;52.210;21.046;2024-01-30T11:33:32;17.97;;;12.50;;
11090;SDS011;5599;52.210;21.046;2024-01-30T11:36:02;17.83;;;13.60;;
11090;SDS011;5599;52.210;21.046;2024-01-30T11:38:34;15.57;;;12.57;;
11090;SDS011;5599;52.210;21.046;2024-01-30T11:41:03;21.27;;;14.03;;
11090;SDS011;5599;52.210;21.046;2024-01-30T11:43:33;16.30;;;12.70;;
11090;SDS011;5599;52.210;21.046;2024-01-30T11:46:03;17.50;;;13.03;;
11090;SDS011;5599;52.210;21.046;2024-01-30T11:48:34;18.03;;;12.57;;
11090;SDS011;5599;52.210;21.046;2024-01-30T11:51:03;19.17;;;12.57;;
11090;SDS011;5599;52.210;21.046;2024-01-30T11:53:32;21.03;;;15.30;;
11090;SDS011;5599;52.210;21.046;2024-01-30T11:56:01;21.83;;;14.07;;
11090;SDS011;5599;52.210;21.046;2024-01-30T11:58:30;18.27;;;13.60;;
11090;SDS011;5599;52.210;21.046;2024-01-30T12:01:01;18.37;;;13.13;;
11090;SDS011;5599;52.210;21.046;2024-01-30T12:03:30;18.70;;;13.33;;
11090;SDS011;5599;52.210;21.046;2024-01-30T12:05:59;18.03;;;13.17;;
11090;SDS011;5599;52.210;21.046;2024-01-30T12:08:28;15.30;;;13.13;;
11090;SDS011;5599;52.210;21.046;2024-01-30T12:10:57;20.10;;;11.80;;
11090;SDS011;5599;52.210;21.046;2024-01-30T12:13:28;15.70;;;11.83;;
11090;SDS011;5599;52.210;21.046;2024-01-30T12:16:01;18.53;;;13.37;;
11090;SDS011;5599;52.210;21.046;2024-01-30T12:18:30;19.37;;;12.70;;
11090;SDS011;5599;52.210;21.046;2024-01-30T12:20:59;20.07;;;12.70;;
11090;SDS011;5599;52.210;21.046;2024-01-30T12:23:28;16.90;;;12.90;;
11090;SDS011;5599;52.210;21.046;2024-01-30T12:25:57;21.07;;;14.23;;
11090;SDS011;5599;52.210;21.046;2024-01-30T12:28:26;17.10;;;12.53;;
11090;SDS011;5599;52.210;21.046;2024-01-30T12:30:55;17.27;;;12.43;;
11090;SDS011;5599;52.210;21.046;2024-01-30T12:33:27;16.60;;;12.27;;
11090;SDS011;5599;52.210;21.046;2024-01-30T12:35:56;16.20;;;11.83;;
11090;SDS011;5599;52.210;21.046;2024-01-30T12:38:30;15.90;;;11.90;;
11090;SDS011;5599;52.210;21.046;2024-01-30T12:40:59;17.70;;;12.30;;
11090;SDS011;5599;52.210;21.046;2024-01-30T12:43:29;18.37;;;13.10;;
11090;SDS011;5599;52.210;21.046;2024-01-30T12:46:05;19.13;;;12.03;;
11090;SDS011;5599;52.210;21.046;2024-01-30T12:48:35;17.43;;;12.17;;
11090;SDS011;5599;52.210;21.046;2024-01-30T12:51:04;17.67;;;14.23;;
11090;SDS011;5599;52.210;21.046;2024-01-30T12:53:33;15.07;;;11.97;;
11090;SDS011;5599;52.210;21.046;2024-01-30T12:56:03;18.40;;;13.53;;
11090;SDS011;5599;52.210;21.046;2024-01-30T12:58:32;14.83;;;11.63;;
11090;SDS011;5599;52.210;21.046;2024-01-30T13:01:00;18.27;;;13.03;;
11090;SDS011;5599;52.210;21.046;2024-01-30T13:03:29;20.87;;;12.53;;
11090;SDS011;5599;52.210;21.046;2024-01-30T13:06:00;17.17;;;12.37;;
11090;SDS011;5599;52.210;21.046;2024-01-30T13:08:29;15.87;;;11.87;;
11090;SDS011;5599;52.210;21.046;2024-01-30T13:10:58;15.80;;;11.90;;
11090;SDS011;5599;52.210;21.046;2024-01-30T13:13:27;16.57;;;12.00;;
11090;SDS011;5599;52.210;21.046;2024-01-30T13:15:56;15.53;;;11.60;;
11090;SDS011;5599;52.210;21.046;2024-01-30T13:18:26;16.80;;;11.77;;
11090;SDS011;5599;52.210;21.046;2024-01-30T13:20:55;15.13;;;11.70;;
11090;SDS011;5599;52.210;21.046;2024-01-30T13:23:25;15.27;;;11.47;;
11090;SDS011;5599;52.210;21.046;2024-01-30T13:25:54;16.50;;;12.67;;
11090;SDS011;5599;52.210;21.046;2024-01-30T13:28:25;16.57;;;11.53;;
11090;SDS011;5599;52.210;21.046;2024-01-30T13:30:54;19.20;;;12.13;;
11090;SDS011;5599;52.210;21.046;2024-01-30T13:33:23;16.43;;;12.13;;
11090;SDS011;5599;52.210;21.046;2024-01-30T13:35:52;16.10;;;12.10;;
11090;SDS011;5599;52.210;21.046;2024-01-30T13:38:22;16.50;;;11.23;;
11090;SDS011;5599;52.210;21.046;2024-01-30T13:40:53;16.73;;;12.00;;
11090;SDS011;5599;52.210;21.046;2024-01-30T13:43:22;18.83;;;14.20;;
11090;SDS011;5599;52.210;21.046;2024-01-30T13:45:51;14.63;;;11.37;;
11090;SDS011;5599;52.210;21.046;2024-01-30T13:48:20;15.60;;;11.43;;
11090;SDS011;5599;52.210;21.046;2024-01-30T13:50:49;13.77;;;12.00;;
11090;SDS011;5599;52.210;21.046;2024-01-30T13:53:18;16.03;;;12.07;;
11090;SDS011;5599;52.210;21.046;2024-01-30T13:55:47;15.43;;;12.03;;
11090;SDS011;5599;52.210;21.046;2024-01-30T13:58:18;16.73;;;12.40;;
11090;SDS011;5599;52.210;21.046;2024-01-30T14:00:47;16.53;;;12.23;;
11090;SDS011;5599;52.210;21.046;2024-01-30T14:03:16;17.00;;;12.17;;
11090;SDS011;5599;52.210;21.046;2024-01-30T14:05:45;15.23;;;12.10;;
11090;SDS011;5599;52.210;21.046;2024-01-30T14:08:14;16.20;;;11.77;;
11090;SDS011;5599;52.210;21.046;2024-01-30T14:10:44;15.03;;;11.07;;
11090;SDS011;5599;52.210;21.046;2024-01-30T14:13:13;16.70;;;12.20;;
11090;SDS011;5599;52.210;21.046;2024-01-30T14:15:43;16.50;;;11.63;;
11090;SDS011;5599;52.210;21.046;2024-01-30T14:18:12;15.80;;;11.80;;
11090;SDS011;5599;52.210;21.046;2024-01-30T14:20:42;18.13;;;11.33;;
11090;SDS011;5599;52.210;21.046;2024-01-30T14:23:11;19.30;;;13.30;;
11090;SDS011;5599;52.210;21.046;2024-01-30T14:25:40;19.97;;;12.50;;
11090;SDS011;5599;52.210;21.046;2024-01-30T14:28:09;17.03;;;11.80;;
11090;SDS011;5599;52.210;21.046;2024-01-30T14:30:38;15.10;;;11.87;;
11090;SDS011;5599;52.210;21.046;2024-01-30T14:33:08;17.48;;;13.38;;